createdAt,value
2019-01-14T00:00:26.295Z,2.50
2019-01-14T00:02:55.406Z,2.57
2019-01-14T00:05:24.646Z,2.77
2019-01-14T00:07:53.671Z,3.07
2019-01-14T00:10:22.712Z,3.07
2019-01-14T00:12:51.764Z,2.50
2019-01-14T00:15:20.883Z,3.17
2019-01-14T00:17:49.870Z,2.87
2019-01-14T00:20:18.862Z,2.63
2019-01-14T00:22:47.827Z,3.03
2019-01-14T00:25:16.845Z,3.40
2019-01-14T00:27:45.898Z,3.77
2019-01-14T00:30:17.471Z,2.87
2019-01-14T00:32:46.505Z,2.57
2019-01-14T00:35:15.538Z,2.97
2019-01-14T00:37:44.682Z,3.33
2019-01-14T00:40:15.378Z,2.57
2019-01-14T00:42:45.106Z,2.83
2019-01-14T00:45:14.400Z,2.93
2019-01-14T00:47:43.542Z,2.40
2019-01-14T00:50:14.634Z,2.70
2019-01-14T00:52:43.953Z,2.47
2019-01-14T00:55:13.459Z,3.00
2019-01-14T00:57:42.450Z,2.00
2019-01-14T01:00:16.933Z,2.30
2019-01-14T01:02:46.082Z,2.03
2019-01-14T01:05:15.120Z,2.10
2019-01-14T01:07:44.800Z,2.40
2019-01-14T01:10:16.229Z,3.30
2019-01-14T01:12:45.583Z,2.30
2019-01-14T01:15:16.259Z,2.40
2019-01-14T01:17:45.583Z,1.63
2019-01-14T01:20:17.855Z,2.53
2019-01-14T01:22:47.855Z,2.57
2019-01-14T01:25:17.159Z,3.47
2019-01-14T01:27:46.262Z,3.20
2019-01-14T01:30:16.761Z,2.40
2019-01-14T01:32:46.113Z,3.30
2019-01-14T01:35:15.592Z,2.83
2019-01-14T01:37:44.822Z,2.57
2019-01-14T01:40:16.419Z,3.37
2019-01-14T01:42:45.463Z,2.50
2019-01-14T01:45:15.162Z,2.93
2019-01-14T01:47:44.134Z,3.40
2019-01-14T01:50:15.638Z,3.03
2019-01-14T01:52:44.757Z,2.60
2019-01-14T01:55:14.250Z,2.40
2019-01-14T01:57:43.585Z,3.10
2019-01-14T02:00:16.363Z,2.30
2019-01-14T02:02:45.475Z,2.80
2019-01-14T02:05:15.180Z,1.70
2019-01-14T02:07:44.198Z,2.07
2019-01-14T02:10:18.654Z,2.80
2019-01-14T02:12:47.988Z,1.70
2019-01-14T02:15:18.885Z,1.90
2019-01-14T02:17:48.374Z,2.00
2019-01-14T02:20:18.782Z,1.87
2019-01-14T02:22:47.875Z,2.20
2019-01-14T02:25:17.387Z,2.00
2019-01-14T02:27:46.359Z,1.60
2019-01-14T02:30:17.672Z,1.50
2019-01-14T02:32:46.705Z,1.50
2019-01-14T02:35:15.782Z,1.43
2019-01-14T02:37:44.911Z,1.20
2019-01-14T02:40:19.236Z,1.40
2019-01-14T02:42:48.374Z,1.13
2019-01-14T02:45:17.998Z,2.30
2019-01-14T02:47:47.015Z,1.30
2019-01-14T02:50:16.333Z,1.27
2019-01-14T02:52:45.534Z,1.30
2019-01-14T02:55:15.105Z,1.10
2019-01-14T02:57:44.070Z,1.10
2019-01-14T03:00:19.371Z,1.53
2019-01-14T03:02:48.403Z,1.20
2019-01-14T03:05:17.375Z,1.20
2019-01-14T03:07:47.082Z,1.57
2019-01-14T03:10:16.197Z,0.97
2019-01-14T03:12:45.290Z,1.30
2019-01-14T03:15:16.132Z,1.60
2019-01-14T03:17:45.154Z,1.37
2019-01-14T03:20:16.272Z,1.40
2019-01-14T03:22:45.570Z,1.30
2019-01-14T03:25:15.591Z,1.97
2019-01-14T03:27:44.607Z,2.07
2019-01-14T03:30:16.359Z,2.23
2019-01-14T03:32:45.383Z,2.83
2019-01-14T03:35:14.782Z,1.67
2019-01-14T03:37:44.239Z,1.57
2019-01-14T03:40:15.151Z,1.97
2019-01-14T03:42:44.178Z,1.77
2019-01-14T03:45:14.086Z,1.40
2019-01-14T03:47:43.054Z,2.40
2019-01-14T03:50:15.267Z,1.77
2019-01-14T03:52:44.372Z,1.97
2019-01-14T03:55:13.691Z,1.90
2019-01-14T03:57:43.791Z,2.37
2019-01-14T04:00:15.467Z,2.57
2019-01-14T04:02:44.822Z,2.83
2019-01-14T04:05:14.120Z,3.03
2019-01-14T04:07:43.216Z,3.80
2019-01-14T04:10:17.402Z,2.90
2019-01-14T04:12:46.503Z,2.57
2019-01-14T04:15:17.589Z,4.40
2019-01-14T04:17:47.057Z,2.60
2019-01-14T04:20:17.726Z,2.43
2019-01-14T04:22:47.408Z,2.50
2019-01-14T04:25:16.529Z,2.30
2019-01-14T04:27:45.550Z,3.07
2019-01-14T04:30:17.542Z,3.27
2019-01-14T04:32:46.566Z,2.80
2019-01-14T04:35:15.979Z,2.73
2019-01-14T04:37:44.942Z,2.43
2019-01-14T04:40:15.362Z,2.53
2019-01-14T04:42:44.942Z,2.53
2019-01-14T04:45:15.673Z,2.20
2019-01-14T04:47:44.936Z,2.70
2019-01-14T04:50:19.798Z,3.23
2019-01-14T04:52:48.834Z,3.00
2019-01-14T04:55:18.061Z,3.20
2019-01-14T04:57:50.802Z,3.20
2019-01-14T05:00:22.267Z,3.10
2019-01-14T05:02:51.242Z,3.97
2019-01-14T05:05:20.472Z,2.83
2019-01-14T05:07:49.425Z,3.00
2019-01-14T05:10:20.719Z,3.00
2019-01-14T05:12:49.766Z,2.70
2019-01-14T05:15:18.738Z,2.77
2019-01-14T05:17:47.795Z,2.47
2019-01-14T05:20:22.610Z,2.97
2019-01-14T05:22:52.310Z,2.37
2019-01-14T05:25:21.409Z,2.23
2019-01-14T05:27:50.564Z,2.40
2019-01-14T05:30:20.650Z,2.10
2019-01-14T05:32:49.735Z,2.50
2019-01-14T05:35:19.099Z,2.17
2019-01-14T05:37:48.078Z,2.30
2019-01-14T05:40:22.523Z,2.20
2019-01-14T05:42:51.838Z,2.20
2019-01-14T05:45:20.890Z,3.23
2019-01-14T05:47:49.923Z,2.20
2019-01-14T05:50:19.132Z,2.40
2019-01-14T05:52:48.152Z,2.47
2019-01-14T05:55:17.380Z,2.43
2019-01-14T05:57:46.352Z,2.23
2019-01-14T06:00:31.891Z,2.67
2019-01-14T06:03:00.920Z,3.20
2019-01-14T06:05:29.891Z,3.17
2019-01-14T06:07:58.859Z,3.50
2019-01-14T06:10:27.822Z,3.60
2019-01-14T06:12:56.801Z,3.10
2019-01-14T06:15:25.930Z,3.03
2019-01-14T06:17:55.155Z,3.20
2019-01-14T06:20:25.764Z,3.97
2019-01-14T06:22:54.739Z,3.10
2019-01-14T06:25:23.761Z,2.83
2019-01-14T06:27:52.754Z,3.10
2019-01-14T06:30:24.595Z,3.00
2019-01-14T06:32:53.563Z,4.80
2019-01-14T06:35:22.586Z,3.50
2019-01-14T06:37:52.494Z,2.83
2019-01-14T06:40:22.935Z,2.57
2019-01-14T06:42:52.042Z,3.23
2019-01-14T06:45:21.142Z,2.17
2019-01-14T06:47:50.178Z,2.60
2019-01-14T06:50:20.384Z,2.67
2019-01-14T06:52:49.871Z,2.43
2019-01-14T06:55:19.574Z,2.57
2019-01-14T06:57:48.610Z,2.43
2019-01-14T07:00:23.290Z,3.23
2019-01-14T07:02:52.599Z,2.93
2019-01-14T07:05:21.901Z,2.77
2019-01-14T07:07:51.123Z,2.67
2019-01-14T07:10:23.283Z,2.43
2019-01-14T07:12:52.539Z,3.03
2019-01-14T07:15:21.835Z,4.10
2019-01-14T07:17:50.931Z,2.87
2019-01-14T07:20:20.544Z,2.73
2019-01-14T07:22:49.694Z,2.70
2019-01-14T07:25:18.882Z,2.60
2019-01-14T07:27:47.924Z,2.83
2019-01-14T07:30:19.388Z,2.60
2019-01-14T07:32:48.588Z,2.90
2019-01-14T07:35:17.985Z,3.03
2019-01-14T07:37:47.694Z,2.63
2019-01-14T07:40:19.071Z,2.83
2019-01-14T07:42:48.115Z,3.07
2019-01-14T07:45:19.011Z,3.43
2019-01-14T07:47:48.124Z,2.67
2019-01-14T07:50:18.400Z,3.30
2019-01-14T07:52:47.806Z,2.63
2019-01-14T07:55:16.903Z,2.90
2019-01-14T07:57:46.010Z,3.40
2019-01-14T08:00:23.576Z,2.80
2019-01-14T08:02:52.895Z,2.67
2019-01-14T08:05:21.987Z,2.63
2019-01-14T08:07:51.602Z,3.63
2019-01-14T08:10:20.614Z,1.90
2019-01-14T08:12:49.779Z,2.33
2019-01-14T08:15:20.458Z,2.07
2019-01-14T08:17:49.519Z,2.50
2019-01-14T08:20:18.569Z,2.20
2019-01-14T08:22:47.800Z,2.70
2019-01-14T08:25:16.879Z,2.37
2019-01-14T08:27:45.918Z,2.57
2019-01-14T08:30:22.048Z,2.40
2019-01-14T08:32:51.368Z,2.47
2019-01-14T08:35:20.671Z,2.40
2019-01-14T08:37:51.549Z,2.17
2019-01-14T08:40:20.615Z,2.40
2019-01-14T08:42:49.755Z,2.87
2019-01-14T08:45:18.801Z,2.40
2019-01-14T08:47:47.846Z,2.30
2019-01-14T08:50:18.351Z,2.60
2019-01-14T08:52:47.588Z,2.40
2019-01-14T08:55:16.906Z,3.10
2019-01-14T08:57:45.941Z,2.40
2019-01-14T09:00:17.355Z,2.23
2019-01-14T09:02:46.487Z,2.00
2019-01-14T09:05:15.873Z,1.60
2019-01-14T09:07:44.914Z,1.50
2019-01-14T09:10:17.591Z,1.00
2019-01-14T09:12:46.631Z,0.83
2019-01-14T09:15:18.991Z,1.30
2019-01-14T09:17:48.306Z,1.00
2019-01-14T09:20:19.864Z,1.00
2019-01-14T09:22:48.994Z,1.00
2019-01-14T09:25:17.951Z,0.93
2019-01-14T09:27:47.369Z,1.20
2019-01-14T09:30:21.598Z,1.10
2019-01-14T09:32:50.811Z,1.00
2019-01-14T09:35:20.030Z,0.90
2019-01-14T09:37:49.064Z,2.27
2019-01-14T09:40:20.254Z,1.10
2019-01-14T09:42:49.412Z,1.27
2019-01-14T09:45:18.371Z,1.00
2019-01-14T09:47:47.424Z,0.90
2019-01-14T09:50:16.908Z,1.00
2019-01-14T09:52:45.952Z,1.00
2019-01-14T09:55:17.149Z,1.00
2019-01-14T09:57:46.962Z,1.20
2019-01-14T10:00:16.060Z,1.07
2019-01-14T10:02:45.571Z,0.90
2019-01-14T10:05:17.338Z,1.00
2019-01-14T10:07:46.743Z,1.33
2019-01-14T10:10:17.355Z,1.80
2019-01-14T10:12:46.567Z,1.50
2019-01-14T10:15:21.092Z,1.10
2019-01-14T10:17:52.139Z,1.33
2019-01-14T10:20:21.120Z,1.40
2019-01-14T10:22:50.429Z,1.20
2019-01-14T10:25:19.543Z,1.87
2019-01-14T10:27:48.513Z,1.10
2019-01-14T10:30:19.119Z,2.40
2019-01-14T10:32:48.161Z,1.20
2019-01-14T10:35:17.118Z,1.23
2019-01-14T10:37:46.425Z,1.20
2019-01-14T10:40:16.722Z,1.10
2019-01-14T10:42:45.834Z,1.80
2019-01-14T10:45:17.866Z,1.70
2019-01-14T10:47:46.966Z,1.43
2019-01-14T10:50:16.069Z,1.67
2019-01-14T10:52:45.293Z,1.67
2019-01-14T10:55:15.011Z,1.40
2019-01-14T10:57:44.210Z,1.30
2019-01-14T11:00:16.302Z,1.40
2019-01-14T11:02:47.950Z,1.27
2019-01-14T11:05:21.572Z,1.57
2019-01-14T11:07:51.171Z,1.60
2019-01-14T11:10:20.383Z,1.53
2019-01-14T11:12:49.405Z,1.43
2019-01-14T11:15:20.510Z,1.57
2019-01-14T11:17:49.826Z,1.83
2019-01-14T11:20:27.247Z,1.87
2019-01-14T11:22:56.664Z,2.90
2019-01-14T11:25:26.234Z,1.70
2019-01-14T11:27:55.535Z,1.87
2019-01-14T11:30:26.765Z,1.70
2019-01-14T11:32:56.099Z,1.60
2019-01-14T11:35:25.140Z,1.90
2019-01-14T11:37:54.161Z,2.23
2019-01-14T11:40:26.224Z,2.10
2019-01-14T11:42:55.171Z,1.90
2019-01-14T11:45:24.146Z,2.60
2019-01-14T11:47:53.255Z,1.80
2019-01-14T11:50:22.362Z,1.90
2019-01-14T11:52:51.322Z,1.80
2019-01-14T11:55:20.312Z,2.10
2019-01-14T11:57:49.306Z,1.93
2019-01-14T12:00:23.435Z,2.00
2019-01-14T12:02:53.139Z,2.10
2019-01-14T12:05:22.651Z,2.00
2019-01-14T12:07:51.700Z,2.30
2019-01-14T12:10:20.670Z,2.30
2019-01-14T12:12:49.643Z,2.00
2019-01-14T12:15:24.215Z,3.37
2019-01-14T12:17:53.173Z,2.10
2019-01-14T12:20:22.458Z,2.50
2019-01-14T12:22:51.478Z,2.20
2019-01-14T12:25:20.455Z,2.37
2019-01-14T12:27:49.425Z,2.20
2019-01-14T12:30:22.041Z,2.30
2019-01-14T12:32:51.095Z,1.97
2019-01-14T12:35:20.137Z,2.60
2019-01-14T12:37:49.269Z,2.10
2019-01-14T12:40:18.332Z,1.73
2019-01-14T12:42:47.305Z,2.60
2019-01-14T12:45:18.216Z,2.07
2019-01-14T12:47:47.714Z,2.20
2019-01-14T12:50:18.654Z,2.30
2019-01-14T12:52:47.959Z,2.50
2019-01-14T12:55:18.874Z,2.63
2019-01-14T12:57:48.376Z,2.20
2019-01-14T13:00:28.346Z,2.50
2019-01-14T13:02:58.750Z,2.37
2019-01-14T13:05:28.968Z,2.37
2019-01-14T13:07:58.299Z,3.37
2019-01-14T13:10:27.263Z,2.17
2019-01-14T13:12:56.401Z,2.90
2019-01-14T13:15:26.806Z,2.57
2019-01-14T13:17:55.763Z,2.67
2019-01-14T13:20:24.739Z,2.33
2019-01-14T13:22:53.762Z,2.73
2019-01-14T13:25:22.879Z,2.00
2019-01-14T13:27:51.982Z,1.97
2019-01-14T13:30:28.742Z,2.30
2019-01-14T13:32:58.235Z,2.03
2019-01-14T13:35:27.390Z,2.20
2019-01-14T13:37:56.484Z,2.23
2019-01-14T13:40:25.549Z,2.40
2019-01-14T13:42:54.774Z,2.10
2019-01-14T13:45:24.288Z,2.80
2019-01-14T13:47:53.315Z,2.00
2019-01-14T13:50:26.142Z,2.50
2019-01-14T13:52:55.262Z,2.17
2019-01-14T13:55:24.406Z,3.73
2019-01-14T13:57:53.498Z,2.57
2019-01-14T14:00:24.009Z,2.00
2019-01-14T14:02:53.511Z,2.10
2019-01-14T14:05:22.665Z,2.30
2019-01-14T14:07:51.678Z,2.10
2019-01-14T14:10:23.289Z,2.77
2019-01-14T14:12:52.270Z,2.70
2019-01-14T14:15:21.879Z,2.50
2019-01-14T14:17:50.844Z,2.37
2019-01-14T14:20:20.443Z,1.90
2019-01-14T14:22:49.666Z,2.47
2019-01-14T14:25:18.706Z,2.73
2019-01-14T14:27:47.767Z,1.63
2019-01-14T14:30:25.486Z,2.07
2019-01-14T14:32:54.513Z,2.30
2019-01-14T14:35:23.650Z,2.33
2019-01-14T14:37:53.000Z,2.30
2019-01-14T14:40:22.034Z,2.07
2019-01-14T14:42:51.019Z,2.93
2019-01-14T14:45:20.239Z,2.10
2019-01-14T14:47:49.218Z,1.90
2019-01-14T14:50:19.742Z,2.27
2019-01-14T14:52:48.855Z,2.07
2019-01-14T14:55:17.968Z,2.77
2019-01-14T14:57:47.010Z,2.10
2019-01-14T15:00:19.273Z,1.90
2019-01-14T15:02:48.323Z,2.00
2019-01-14T15:05:17.917Z,2.17
2019-01-14T15:07:47.031Z,2.47
2019-01-14T15:10:18.602Z,1.67
2019-01-14T15:12:47.726Z,2.60
2019-01-14T15:15:18.542Z,2.57
2019-01-14T15:17:47.547Z,2.23
2019-01-14T15:20:18.914Z,2.20
2019-01-14T15:22:48.252Z,2.13
2019-01-14T15:25:17.475Z,2.57
2019-01-14T15:27:46.549Z,2.30
2019-01-14T15:30:18.718Z,2.53
2019-01-14T15:32:47.702Z,2.40
2019-01-14T15:35:17.296Z,2.60
2019-01-14T15:37:46.396Z,2.07
2019-01-14T15:40:17.492Z,2.00
2019-01-14T15:42:46.537Z,2.40
2019-01-14T15:45:17.727Z,2.07
2019-01-14T15:47:46.818Z,2.27
2019-01-14T15:50:15.981Z,2.00
2019-01-14T15:52:45.014Z,2.00
2019-01-14T15:55:20.075Z,1.77
2019-01-14T15:57:49.397Z,1.60
2019-01-14T16:00:19.195Z,1.80
2019-01-14T16:02:48.456Z,1.87
2019-01-14T16:05:18.826Z,1.67
2019-01-14T16:07:48.091Z,1.73
2019-01-14T16:10:21.863Z,1.50
2019-01-14T16:12:50.928Z,3.73
2019-01-14T16:15:20.019Z,1.77
2019-01-14T16:17:49.131Z,1.77
2019-01-14T16:20:20.346Z,1.70
2019-01-14T16:22:49.762Z,2.07
2019-01-14T16:25:18.728Z,1.70
2019-01-14T16:27:47.814Z,1.60
2019-01-14T16:30:19.490Z,1.60
2019-01-14T16:32:48.598Z,2.53
2019-01-14T16:35:17.576Z,2.03
2019-01-14T16:37:46.647Z,2.17
2019-01-14T16:40:18.148Z,2.00
2019-01-14T16:42:46.439Z,2.07
2019-01-14T16:45:18.254Z,2.30
2019-01-14T16:47:47.318Z,1.83
2019-01-14T16:50:17.218Z,2.20
2019-01-14T16:52:46.346Z,2.10
2019-01-14T16:55:17.013Z,3.57
2019-01-14T16:57:46.001Z,2.20
2019-01-14T17:00:17.577Z,1.97
2019-01-14T17:02:46.800Z,1.93
2019-01-14T17:05:16.618Z,2.10
2019-01-14T17:07:45.773Z,2.50
2019-01-14T17:10:16.076Z,2.53
2019-01-14T17:12:45.186Z,2.20
2019-01-14T17:15:14.689Z,2.53
2019-01-14T17:17:43.737Z,2.60
2019-01-14T17:20:18.284Z,2.30
2019-01-14T17:22:47.605Z,2.50
2019-01-14T17:25:16.907Z,2.30
2019-01-14T17:27:46.025Z,3.20
2019-01-14T17:30:16.414Z,3.10
2019-01-14T17:32:45.478Z,3.63
2019-01-14T17:35:15.383Z,3.00
2019-01-14T17:37:44.497Z,2.40
2019-01-14T17:40:20.867Z,2.73
2019-01-14T17:42:49.904Z,4.00
2019-01-14T17:45:18.995Z,4.17
2019-01-14T17:47:48.362Z,5.33
2019-01-14T17:50:18.777Z,3.80
2019-01-14T17:52:48.299Z,3.40
2019-01-14T17:55:17.291Z,3.37
2019-01-14T17:57:46.245Z,3.70
2019-01-14T18:00:18.032Z,4.20
2019-01-14T18:02:47.060Z,4.43
2019-01-14T18:05:16.267Z,3.73
2019-01-14T18:07:45.326Z,3.27
2019-01-14T18:10:16.459Z,3.03
2019-01-14T18:12:45.431Z,3.07
2019-01-14T18:15:14.898Z,2.97
2019-01-14T18:17:44.954Z,3.23
2019-01-14T18:20:18.364Z,3.63
2019-01-14T18:22:47.528Z,2.27
2019-01-14T18:25:17.089Z,3.30
2019-01-14T18:27:46.288Z,3.07
2019-01-14T18:30:17.719Z,2.27
2019-01-14T18:32:46.770Z,2.07
2019-01-14T18:35:17.077Z,3.80
2019-01-14T18:37:46.367Z,1.97
2019-01-14T18:40:16.478Z,3.47
2019-01-14T18:42:45.659Z,2.70
2019-01-14T18:45:16.874Z,2.43
2019-01-14T18:47:46.007Z,2.60
2019-01-14T18:50:18.315Z,2.37
2019-01-14T18:52:47.544Z,2.50
2019-01-14T18:55:16.582Z,2.80
2019-01-14T18:57:45.618Z,3.07
2019-01-14T19:00:17.250Z,2.70
2019-01-14T19:02:46.304Z,2.33
2019-01-14T19:05:15.456Z,2.37
2019-01-14T19:07:44.513Z,2.50
2019-01-14T19:10:14.232Z,2.33
2019-01-14T19:12:43.302Z,2.70
2019-01-14T19:15:17.190Z,1.90
2019-01-14T19:17:46.392Z,2.00
2019-01-14T19:20:21.039Z,2.30
2019-01-14T19:22:50.079Z,2.60
2019-01-14T19:25:19.146Z,2.30
2019-01-14T19:27:48.171Z,3.43
2019-01-14T19:30:21.557Z,2.70
2019-01-14T19:32:50.594Z,3.13
2019-01-14T19:35:19.663Z,2.30
2019-01-14T19:37:48.730Z,2.90
2019-01-14T19:40:19.757Z,2.43
2019-01-14T19:42:49.642Z,2.43
2019-01-14T19:45:19.771Z,3.57
2019-01-14T19:47:48.741Z,2.77
2019-01-14T19:50:20.219Z,2.27
2019-01-14T19:52:49.754Z,3.20
2019-01-14T19:55:18.875Z,2.37
2019-01-14T19:57:48.019Z,3.17
2019-01-14T20:00:19.917Z,2.67
2019-01-14T20:02:48.930Z,2.93
2019-01-14T20:05:18.002Z,3.47
2019-01-14T20:07:47.772Z,3.47
2019-01-14T20:10:16.831Z,3.17
2019-01-14T20:12:45.876Z,3.17
2019-01-14T20:15:20.200Z,2.60
2019-01-14T20:17:49.167Z,2.77
2019-01-14T20:20:18.238Z,3.83
2019-01-14T20:22:47.567Z,2.87
2019-01-14T20:25:17.206Z,3.53
2019-01-14T20:27:46.235Z,2.70
2019-01-14T20:30:20.459Z,2.83
2019-01-14T20:32:49.604Z,3.13
2019-01-14T20:35:18.658Z,2.80
2019-01-14T20:37:47.694Z,3.00
2019-01-14T20:40:17.046Z,2.70
2019-01-14T20:42:46.056Z,3.33
2019-01-14T20:45:16.877Z,3.23
2019-01-14T20:47:46.197Z,3.50
2019-01-14T20:50:17.818Z,2.53
2019-01-14T20:52:46.940Z,2.80
2019-01-14T20:55:16.175Z,2.80
2019-01-14T20:57:45.385Z,3.43
2019-01-14T21:00:17.288Z,4.57
2019-01-14T21:02:46.334Z,3.20
2019-01-14T21:05:15.593Z,3.50
2019-01-14T21:07:44.640Z,3.27
2019-01-14T21:10:15.644Z,2.70
2019-01-14T21:12:44.724Z,3.43
2019-01-14T21:15:14.136Z,2.70
2019-01-14T21:17:43.397Z,4.37
2019-01-14T21:20:18.590Z,3.30
2019-01-14T21:22:47.813Z,4.10
2019-01-14T21:25:16.857Z,3.73
2019-01-14T21:27:45.840Z,2.90
2019-01-14T21:30:23.348Z,3.27
2019-01-14T21:32:52.651Z,4.60
2019-01-14T21:35:21.870Z,4.13
2019-01-14T21:37:51.680Z,3.53
2019-01-14T21:40:20.812Z,6.27
2019-01-14T21:42:49.802Z,4.83
2019-01-14T21:45:18.916Z,4.57
2019-01-14T21:47:47.970Z,3.70
2019-01-14T21:50:19.024Z,3.40
2019-01-14T21:52:48.088Z,4.10
2019-01-14T21:55:19.757Z,4.27
2019-01-14T21:57:48.773Z,3.77
2019-01-14T22:00:20.069Z,4.30
2019-01-14T22:02:49.114Z,3.80
2019-01-14T22:05:18.254Z,4.40
2019-01-14T22:07:47.420Z,4.30
2019-01-14T22:10:18.689Z,5.27
2019-01-14T22:12:47.751Z,5.00
2019-01-14T22:15:16.958Z,4.60
2019-01-14T22:17:45.928Z,4.83
2019-01-14T22:20:25.558Z,4.33
2019-01-14T22:22:54.782Z,5.13
2019-01-14T22:25:23.806Z,4.83
2019-01-14T22:27:52.783Z,4.83
2019-01-14T22:30:24.587Z,4.60
2019-01-14T22:32:53.566Z,4.17
2019-01-14T22:35:22.545Z,3.83
2019-01-14T22:37:51.599Z,4.23
2019-01-14T22:40:20.645Z,3.53
2019-01-14T22:42:49.735Z,4.23
2019-01-14T22:45:18.807Z,3.70
2019-01-14T22:47:47.793Z,4.00
2019-01-14T22:50:18.322Z,3.87
2019-01-14T22:52:47.473Z,3.80
2019-01-14T22:55:16.495Z,3.57
2019-01-14T22:57:45.534Z,4.30
2019-01-14T23:00:36.927Z,4.20
2019-01-14T23:03:06.030Z,4.73
2019-01-14T23:05:35.062Z,3.77
2019-01-14T23:08:04.130Z,5.00
2019-01-14T23:10:33.102Z,3.57
2019-01-14T23:13:02.090Z,3.67
2019-01-14T23:15:31.111Z,3.60
2019-01-14T23:18:00.290Z,3.57
2019-01-14T23:20:29.396Z,3.90
2019-01-14T23:22:58.384Z,3.77
2019-01-14T23:25:27.347Z,3.33
2019-01-14T23:27:56.314Z,3.43
2019-01-14T23:30:25.370Z,3.53
2019-01-14T23:32:54.349Z,3.50
2019-01-14T23:35:23.326Z,3.57
2019-01-14T23:37:52.303Z,3.67
2019-01-14T23:40:21.331Z,4.23
2019-01-14T23:42:50.387Z,3.77
2019-01-14T23:45:19.351Z,3.23
2019-01-14T23:47:48.314Z,3.43
2019-01-14T23:50:17.287Z,5.23
2019-01-14T23:52:46.403Z,3.57
2019-01-14T23:55:15.358Z,3.50
2019-01-14T23:57:44.339Z,3.53
